Time;durP1;ratioP1;P1;durP2;ratioP2;P2;SDS_P1;SDS_P2;PMS_P1;PMS_P2;Temp;Humidity;BMP_temperature;BMP_pressure;BME280_temperature;BME280_humidity;BME280_pressure;Samples;Min_cycle;Max_cycle;Signal;HPM_P1;HPM_P2
2022/08/01 00:01:37;;;;;;;7.63;2.90;;;23.30;99.90;;;;;;5034760;28;20438;-51
2022/08/01 00:04:03;;;;;;;9.18;3.10;;;23.30;99.90;;;;;;5051980;28;20483;-51
2022/08/01 00:06:29;;;;;;;7.37;3.80;;;23.30;99.90;;;;;;5052856;28;20389;-52
2022/08/01 00:08:55;;;;;;;7.00;2.80;;;23.20;99.90;;;;;;5052982;28;20439;-51
2022/08/01 00:11:20;;;;;;;8.73;3.38;;;23.10;99.90;;;;;;5051906;28;20421;-51
2022/08/01 00:13:46;;;;;;;7.60;3.05;;;23.10;99.90;;;;;;5052512;28;20500;-52
2022/08/01 00:16:12;;;;;;;6.40;2.70;;;23.10;99.90;;;;;;5051930;28;20392;-52
2022/08/01 00:18:38;;;;;;;7.03;3.20;;;23.00;99.90;;;;;;5034918;28;20397;-51
2022/08/01 00:21:04;;;;;;;7.15;2.83;;;22.90;99.90;;;;;;5051475;28;20443;-53
2022/08/01 00:23:30;;;;;;;7.00;2.80;;;22.90;99.90;;;;;;5052506;28;20393;-51
2022/08/01 00:25:56;;;;;;;7.70;2.80;;;22.90;99.90;;;;;;5052491;28;20818;-59
2022/08/01 00:28:21;;;;;;;9.00;3.40;;;22.90;99.90;;;;;;5051444;28;20882;-56
2022/08/01 00:30:47;;;;;;;7.20;2.80;;;22.80;99.90;;;;;;5052353;28;20413;-51
2022/08/01 00:33:13;;;;;;;6.30;2.60;;;22.80;99.90;;;;;;5051498;28;20788;-51
2022/08/01 00:35:38;;;;;;;7.30;2.80;;;22.40;99.90;;;;;;5052047;28;20382;-51
2022/08/01 00:38:04;;;;;;;9.30;2.90;;;22.70;99.90;;;;;;5051732;28;20389;-51
2022/08/01 00:40:29;;;;;;;7.30;3.13;;;22.70;99.90;;;;;;5052082;28;20472;-51
2022/08/01 00:42:55;;;;;;;7.30;3.00;;;22.70;99.90;;;;;;5051941;28;20847;-51
2022/08/01 00:45:21;;;;;;;7.23;2.87;;;22.70;99.90;;;;;;5051057;28;20931;-51
2022/08/01 00:47:46;;;;;;;7.20;3.00;;;22.70;99.90;;;;;;5051962;28;20915;-52
2022/08/01 00:50:12;;;;;;;7.55;3.10;;;22.70;99.90;;;;;;5051014;28;20420;-56
2022/08/01 00:52:40;;;;;;;7.05;2.72;;;22.70;99.90;;;;;;5051715;28;20401;-51
2022/08/01 00:55:07;;;;;;;7.75;3.10;;;22.60;99.90;;;;;;5051134;28;20397;-51
2022/08/01 00:57:33;;;;;;;7.38;3.17;;;22.60;99.90;;;;;;5051569;28;20750;-51
2022/08/01 00:59:58;;;;;;;7.30;3.08;;;22.70;99.90;;;;;;5051613;28;20385;-55
2022/08/01 01:02:24;;;;;;;7.20;3.10;;;22.70;99.90;;;;;;5052143;28;20393;-51
2022/08/01 01:04:50;;;;;;;7.93;3.20;;;22.60;99.90;;;;;;5052206;28;20373;-51
2022/08/01 01:07:24;;;;;;;8.17;3.20;;;22.50;99.90;;;;;;5050789;28;20886;-52
2022/08/01 01:09:52;;;;;;;7.30;3.05;;;22.50;99.90;;;;;;5039662;28;20409;-51
2022/08/01 01:12:34;;;;;;;10.10;3.10;;;22.50;99.90;;;;;;5050911;28;20390;-51
2022/08/01 01:15:44;;;;;;;8.13;3.33;;;22.50;99.90;;;;;;5050928;28;20778;-52
2022/08/01 01:18:17;;;;;;;8.70;2.90;;;22.40;99.90;;;;;;5039289;28;20397;-51
2022/08/01 01:20:45;;;;;;;7.40;3.20;;;22.30;99.90;;;;;;5051687;28;21016;-51
2022/08/01 01:23:17;;;;;;;7.13;3.13;;;22.20;99.90;;;;;;5050487;28;20527;-52
2022/08/01 01:26:19;;;;;;;7.00;2.80;;;22.30;99.90;;;;;;5051803;28;20854;-51
2022/08/01 01:29:03;;;;;;;7.72;2.97;;;22.20;99.90;;;;;;5050917;28;20405;-51
2022/08/01 01:31:34;;;;;;;7.70;3.00;;;22.20;99.90;;;;;;5031526;28;20461;-55
2022/08/01 01:34:02;;;;;;;6.60;2.90;;;22.20;99.90;;;;;;5033459;28;20490;-59
2022/08/01 01:36:30;;;;;;;7.97;3.10;;;22.20;99.90;;;;;;5051344;28;20426;-51
2022/08/01 01:38:57;;;;;;;8.18;2.90;;;22.20;99.90;;;;;;5051087;28;20390;-51
2022/08/01 01:41:24;;;;;;;6.68;2.90;;;22.20;99.90;;;;;;5050983;28;20464;-52
2022/08/01 01:43:51;;;;;;;9.70;2.95;;;22.20;99.90;;;;;;5051318;28;20374;-53
2022/08/01 01:46:22;;;;;;;9.30;3.17;;;22.30;99.90;;;;;;5050935;28;20863;-52
2022/08/01 01:48:48;;;;;;;7.75;2.90;;;22.20;99.90;;;;;;5051114;28;20392;-51
2022/08/01 01:51:16;;;;;;;7.82;3.08;;;22.20;99.90;;;;;;5050065;28;20405;-51
2022/08/01 01:53:44;;;;;;;8.38;3.55;;;22.20;99.90;;;;;;5050682;28;20433;-51
2022/08/01 01:56:14;;;;;;;6.88;2.85;;;22.20;99.90;;;;;;5050744;28;20476;-52
2022/08/01 01:58:40;;;;;;;8.85;3.80;;;22.20;99.90;;;;;;5051014;28;20484;-51
2022/08/01 02:01:06;;;;;;;7.80;3.40;;;22.20;99.90;;;;;;5050351;28;20481;-51
2022/08/01 02:03:36;;;;;;;8.00;3.30;;;22.20;99.90;;;;;;5050458;28;20853;-50
2022/08/01 02:06:02;;;;;;;8.65;3.58;;;22.20;99.90;;;;;;5050237;28;20784;-51
2022/08/01 02:08:30;;;;;;;7.70;2.95;;;22.20;99.90;;;;;;5050404;28;20394;-50
2022/08/01 02:13:43;;;;;;;6.88;3.00;;;22.10;99.90;;;;;;5049935;28;20404;-52
2022/08/01 02:16:12;;;;;;;8.68;3.40;;;22.00;99.90;;;;;;5049657;28;20389;-52
2022/08/01 02:18:38;;;;;;;7.38;3.22;;;21.90;99.90;;;;;;5050506;28;20401;-52
2022/08/01 02:21:08;;;;;;;7.87;3.10;;;21.80;99.90;;;;;;5049812;28;20393;-51
2022/08/01 02:23:36;;;;;;;9.60;3.10;;;21.70;99.90;;;;;;5050797;28;20456;-50
2022/08/01 02:26:06;;;;;;;7.68;3.40;;;21.70;99.90;;;;;;5049856;28;20431;-59
2022/08/01 02:28:47;;;;;;;13.52;3.80;;;21.60;99.90;;;;;;5050178;28;20416;-51
2022/08/01 02:31:18;;;;;;;8.27;3.30;;;21.50;99.90;;;;;;5049249;28;20409;-52
2022/08/01 02:33:49;;;;;;;6.60;2.90;;;21.50;99.90;;;;;;5050056;28;20847;-52
2022/08/01 02:36:18;;;;;;;7.22;3.00;;;21.40;99.90;;;;;;5049593;28;20370;-52
2022/08/01 02:38:46;;;;;;;8.02;3.40;;;21.40;99.90;;;;;;5050105;28;20411;-51
2022/08/01 02:41:17;;;;;;;7.70;3.22;;;21.40;99.90;;;;;;5043036;28;20407;-53
2022/08/01 02:43:48;;;;;;;7.22;2.97;;;21.40;99.90;;;;;;5047255;28;20417;-53
2022/08/01 02:46:20;;;;;;;10.35;3.10;;;21.40;99.90;;;;;;5049733;28;20459;-52
2022/08/01 02:48:47;;;;;;;8.53;3.40;;;21.40;99.90;;;;;;5049920;28;20385;-53
2022/08/01 02:51:14;;;;;;;7.97;3.27;;;21.40;99.90;;;;;;5049217;28;20489;-53
2022/08/01 02:53:42;;;;;;;7.65;3.05;;;21.40;99.90;;;;;;5050057;28;20843;-54
2022/08/01 02:56:09;;;;;;;7.05;3.20;;;21.40;99.90;;;;;;5049444;28;20382;-55
2022/08/01 02:58:37;;;;;;;7.70;3.42;;;21.40;99.90;;;;;;5050103;28;20404;-53
2022/08/01 03:01:05;;;;;;;7.20;3.22;;;21.40;99.90;;;;;;5049413;28;20409;-54
2022/08/01 03:03:33;;;;;;;9.40;3.60;;;21.40;99.90;;;;;;5049850;28;20476;-53
2022/08/01 03:06:00;;;;;;;7.90;2.95;;;21.30;99.90;;;;;;5049387;28;20450;-59
2022/08/01 03:08:28;;;;;;;7.88;3.08;;;21.30;99.90;;;;;;5049117;28;20389;-53
2022/08/01 03:10:56;;;;;;;8.25;3.10;;;21.20;99.90;;;;;;5031733;28;20850;-54
2022/08/01 03:13:22;;;;;;;7.30;3.20;;;21.10;99.90;;;;;;5049173;28;20385;-56
2022/08/01 03:15:49;;;;;;;7.78;3.25;;;21.20;99.90;;;;;;5049574;28;20891;-53
2022/08/01 03:18:17;;;;;;;7.03;3.20;;;21.00;99.90;;;;;;5049336;28;20423;-55
2022/08/01 03:20:44;;;;;;;7.22;3.25;;;21.00;1.00;;;;;;5049189;28;20389;-56
2022/08/01 03:23:12;;;;;;;7.63;2.95;;;20.90;1.00;;;;;;5053549;28;20427;-54
2022/08/01 03:25:41;;;;;;;7.80;3.40;;;20.80;1.00;;;;;;5035198;28;20412;-54
2022/08/01 03:28:08;;;;;;;7.10;3.20;;;20.70;1.00;;;;;;5032642;28;20445;-53
2022/08/01 03:30:36;;;;;;;7.35;3.13;;;20.70;1.00;;;;;;5048242;28;20851;-53
2022/08/01 03:33:03;;;;;;;8.35;3.10;;;20.60;1.00;;;;;;5052763;28;20460;-60
2022/08/01 03:35:36;;;;;;;8.25;3.28;;;20.50;8.60;;;;;;5060728;28;20393;-54
2022/08/01 03:38:05;;;;;;;8.32;3.50;;;20.50;99.90;;;;;;5051467;28;20435;-58
2022/08/01 03:40:43;;;;;;;7.45;3.08;;;20.50;99.90;;;;;;5051880;28;20724;-51
2022/08/01 03:43:58;;;;;;;7.68;3.20;;;20.40;99.90;;;;;;5052149;28;20423;-51
2022/08/01 03:46:39;;;;;;;6.90;2.90;;;20.20;1.00;;;;;;4970578;28;20751;-51
2022/08/01 03:49:10;;;;;;;7.82;3.35;;;20.20;1.00;;;;;;4971112;28;20475;-51
2022/08/01 03:51:38;;;;;;;7.18;2.80;;;20.20;1.00;;;;;;5021808;28;20436;-50
2022/08/01 03:54:04;;;;;;;8.02;2.90;;;20.10;1.00;;;;;;5052474;28;20378;-60
2022/08/01 03:56:31;;;;;;;8.40;3.50;;;20.10;86.30;;;;;;5053004;28;20409;-51
2022/08/01 03:58:59;;;;;;;8.20;3.10;;;20.00;99.90;;;;;;5051821;28;20409;-50
2022/08/01 04:01:25;;;;;;;7.97;3.63;;;20.00;99.90;;;;;;5051094;28;20397;-53
2022/08/01 04:03:51;;;;;;;7.78;3.38;;;20.00;99.90;;;;;;5052490;28;20541;-51
2022/08/01 04:06:17;;;;;;;7.50;3.30;;;20.10;99.90;;;;;;5051118;28;20488;-51
2022/08/01 04:08:55;;;;;;;8.63;3.30;;;20.00;99.90;;;;;;5049971;28;20919;-51
2022/08/01 04:11:22;;;;;;;7.65;3.10;;;20.20;99.90;;;;;;5050063;28;20540;-51
2022/08/01 04:13:48;;;;;;;7.88;2.70;;;20.20;99.90;;;;;;5051765;28;20436;-51
2022/08/01 04:16:13;;;;;;;8.27;3.03;;;20.10;99.90;;;;;;5051812;28;20417;-51
2022/08/01 04:18:39;;;;;;;7.40;3.13;;;20.20;99.90;;;;;;5052212;28;20393;-51
2022/08/01 04:21:05;;;;;;;6.87;2.80;;;20.20;99.90;;;;;;5051949;28;20393;-57
2022/08/01 04:23:32;;;;;;;7.28;2.60;;;20.20;99.90;;;;;;5032631;28;20454;-51
2022/08/01 04:26:03;;;;;;;7.63;3.50;;;20.30;99.90;;;;;;5052372;28;20432;-51
2022/08/01 04:28:31;;;;;;;7.03;2.97;;;20.30;99.90;;;;;;5051838;28;20467;-52
2022/08/01 04:30:59;;;;;;;8.55;2.95;;;20.30;99.90;;;;;;5049834;28;20417;-52
2022/08/01 04:33:27;;;;;;;8.23;2.97;;;20.40;99.90;;;;;;5050171;28;20402;-51
2022/08/01 04:35:56;;;;;;;9.60;3.10;;;20.40;99.90;;;;;;5050674;28;20386;-50
2022/08/01 04:38:27;;;;;;;7.10;3.00;;;20.50;99.10;;;;;;5051269;28;20378;-51
2022/08/01 04:40:53;;;;;;;10.10;2.70;;;20.50;52.70;;;;;;5051833;28;20447;-51
2022/08/01 04:43:19;;;;;;;7.70;2.83;;;20.50;98.60;;;;;;5051059;28;20385;-51
2022/08/01 04:45:46;;;;;;;9.70;2.78;;;20.50;99.90;;;;;;5052213;28;21010;-51
2022/08/01 04:48:15;;;;;;;7.40;2.90;;;20.50;99.90;;;;;;5050115;28;20482;-51
2022/08/01 04:50:41;;;;;;;8.13;3.08;;;20.60;99.90;;;;;;5051403;28;20528;-51
2022/08/01 04:53:21;;;;;;;8.43;3.00;;;20.70;15.00;;;;;;5050462;28;20480;-51
2022/08/01 04:55:47;;;;;;;7.18;3.00;;;20.90;1.00;;;;;;5047030;28;21112;-51
2022/08/01 04:58:16;;;;;;;11.73;3.50;;;21.10;1.00;;;;;;5050321;28;20385;-52
2022/08/01 05:00:42;;;;;;;12.30;3.22;;;21.30;1.00;;;;;;5051175;28;20405;-51
2022/08/01 05:03:08;;;;;;;12.13;3.37;;;21.40;99.90;;;;;;5050254;28;20404;-51
2022/08/01 05:05:34;;;;;;;7.25;2.72;;;21.60;99.90;;;;;;5051058;28;20432;-52
2022/08/01 05:08:00;;;;;;;8.38;2.90;;;21.90;99.90;;;;;;5051425;28;20735;-51
2022/08/01 05:10:27;;;;;;;7.35;3.10;;;22.60;99.90;;;;;;5049926;28;20506;-51
2022/08/01 05:12:53;;;;;;;7.10;2.58;;;23.90;1.00;;;;;;5051648;28;20378;-52
2022/08/01 05:15:18;;;;;;;6.72;2.70;;;24.80;99.90;;;;;;5050806;28;20807;-53
2022/08/01 05:17:44;;;;;;;8.10;2.80;;;26.10;99.90;;;;;;5051179;28;20390;-53
2022/08/01 05:20:11;;;;;;;6.18;2.47;;;27.10;99.90;;;;;;5049313;28;20492;-53
2022/08/01 05:22:37;;;;;;;6.53;2.90;;;27.40;99.90;;;;;;5051413;28;20824;-55
2022/08/01 05:25:04;;;;;;;7.47;2.70;;;27.50;99.90;;;;;;5050519;28;20408;-60
2022/08/01 05:27:30;;;;;;;6.60;2.75;;;27.90;99.90;;;;;;5049827;28;20460;-53
2022/08/01 05:29:56;;;;;;;7.93;2.40;;;28.70;99.90;;;;;;5050750;28;20413;-54
2022/08/01 05:32:22;;;;;;;8.20;3.40;;;28.80;99.90;;;;;;5050059;28;20457;-53
2022/08/01 05:34:48;;;;;;;7.70;2.80;;;29.10;99.90;;;;;;5051006;28;20385;-53
2022/08/01 05:37:13;;;;;;;7.73;2.90;;;29.20;99.90;;;;;;5050209;28;20905;-53
2022/08/01 05:39:39;;;;;;;9.17;3.10;;;28.90;99.90;;;;;;5050867;28;20389;-52
2022/08/01 05:42:05;;;;;;;7.00;3.00;;;28.40;99.90;;;;;;5050310;28;20847;-57
2022/08/01 05:44:31;;;;;;;8.47;3.10;;;27.20;99.90;;;;;;5050168;28;20456;-54
2022/08/01 05:46:56;;;;;;;7.33;2.60;;;26.50;99.90;;;;;;5050797;28;20415;-55
2022/08/01 05:49:22;;;;;;;7.30;2.77;;;26.40;99.90;;;;;;5050000;28;21000;-55
2022/08/01 05:51:48;;;;;;;6.57;2.53;;;26.70;99.90;;;;;;5050843;28;20409;-55
2022/08/01 05:54:13;;;;;;;7.23;2.70;;;26.80;99.90;;;;;;5049827;28;20389;-54
2022/08/01 05:56:39;;;;;;;7.30;2.60;;;27.00;99.90;;;;;;5050468;28;20433;-53
2022/08/01 05:59:04;;;;;;;8.63;2.47;;;27.70;99.90;;;;;;5050067;28;20385;-59
2022/08/01 06:01:30;;;;;;;10.17;3.10;;;27.70;99.90;;;;;;5032403;28;20407;-54
2022/08/01 06:03:56;;;;;;;9.80;2.60;;;27.90;99.90;;;;;;5047959;28;20411;-56
2022/08/01 06:06:22;;;;;;;8.73;2.80;;;29.10;99.90;;;;;;5043558;28;20401;-53
2022/08/01 06:08:48;;;;;;;8.10;2.50;;;29.40;99.90;;;;;;5049752;28;20393;-53
2022/08/01 06:11:16;;;;;;;11.63;2.50;;;29.50;99.90;;;;;;5049417;28;20406;-53
2022/08/01 06:13:42;;;;;;;7.50;2.50;;;29.40;99.90;;;;;;5050469;28;20757;-54
2022/08/01 06:16:08;;;;;;;7.90;2.70;;;29.70;99.90;;;;;;5049616;28;20468;-54
2022/08/01 06:18:33;;;;;;;7.80;2.40;;;30.30;99.90;;;;;;5050527;28;20485;-54
2022/08/01 06:20:59;;;;;;;8.20;2.22;;;31.10;99.90;;;;;;5049818;28;20899;-54
2022/08/01 06:23:24;;;;;;;7.38;2.10;;;31.50;99.90;;;;;;5049253;28;21017;-54
2022/08/01 06:25:54;;;;;;;6.53;2.27;;;31.50;99.90;;;;;;5049916;28;20401;-54
2022/08/01 06:28:20;;;;;;;7.57;2.47;;;32.40;99.90;;;;;;5049069;28;20420;-54
2022/08/01 06:30:46;;;;;;;6.17;2.47;;;32.90;99.90;;;;;;5049307;28;20829;-54
2022/08/01 06:33:13;;;;;;;6.53;2.20;;;32.50;99.90;;;;;;5046321;28;20473;-54
2022/08/01 06:35:39;;;;;;;6.18;2.30;;;32.20;99.90;;;;;;5049911;28;20747;-54
2022/08/01 06:38:05;;;;;;;18.17;3.17;;;30.90;99.90;;;;;;5039585;28;20444;-61
2022/08/01 06:40:30;;;;;;;6.67;2.10;;;29.90;99.90;;;;;;5046456;28;20731;-53
2022/08/01 06:42:56;;;;;;;6.77;2.20;;;29.90;99.90;;;;;;5049908;28;20426;-54
2022/08/01 06:45:26;;;;;;;5.73;1.90;;;30.10;99.90;;;;;;5031504;28;20819;-53
2022/08/01 06:47:52;;;;;;;5.60;2.20;;;30.00;99.90;;;;;;5049952;28;20412;-55
2022/08/01 06:50:18;;;;;;;5.85;2.05;;;30.40;99.90;;;;;;5048926;28;20874;-53
2022/08/01 06:52:44;;;;;;;6.65;2.20;;;30.20;99.90;;;;;;5049813;28;20385;-53
2022/08/01 06:55:09;;;;;;;5.60;1.80;;;29.90;99.90;;;;;;5048762;28;20402;-54
2022/08/01 06:57:35;;;;;;;8.00;2.25;;;29.40;99.90;;;;;;5049509;28;20871;-54
2022/08/01 07:00:05;;;;;;;7.20;2.58;;;29.70;99.90;;;;;;5049675;28;20498;-54
2022/08/01 07:02:31;;;;;;;7.28;2.00;;;30.40;99.90;;;;;;5049279;28;20382;-56
2022/08/01 07:05:00;;;;;;;7.25;2.65;;;30.80;99.90;;;;;;5049799;28;20503;-53
2022/08/01 07:07:26;;;;;;;6.90;1.70;;;31.30;99.90;;;;;;5048602;28;20454;-53
2022/08/01 07:09:52;;;;;;;5.60;2.08;;;31.60;99.90;;;;;;5049501;28;20460;-53
2022/08/01 07:12:17;;;;;;;6.63;2.50;;;30.40;99.90;;;;;;5048525;28;21001;-53
2022/08/01 07:14:43;;;;;;;5.60;2.00;;;29.50;99.90;;;;;;5049617;28;20882;-53
2022/08/01 07:17:09;;;;;;;8.20;2.80;;;29.20;99.90;;;;;;5048284;28;20468;-59
2022/08/01 07:19:34;;;;;;;6.23;2.40;;;29.00;99.90;;;;;;5049579;28;20401;-54
2022/08/01 07:22:00;;;;;;;6.13;1.90;;;29.10;99.90;;;;;;5049369;28;20488;-53
2022/08/01 07:24:25;;;;;;;8.10;2.05;;;29.40;99.90;;;;;;5048493;28;20389;-54
2022/08/01 07:26:51;;;;;;;7.00;2.40;;;29.70;99.90;;;;;;5049310;28;20393;-53
2022/08/01 07:29:17;;;;;;;6.00;1.70;;;30.30;99.90;;;;;;5048837;28;20382;-53
2022/08/01 07:31:42;;;;;;;6.07;1.90;;;31.40;99.90;;;;;;5049466;28;20416;-53
2022/08/01 07:34:08;;;;;;;6.10;2.13;;;31.00;99.90;;;;;;5048664;28;20794;-60
2022/08/01 07:36:34;;;;;;;6.50;2.30;;;31.30;99.90;;;;;;5048408;28;20373;-55
2022/08/01 07:38:59;;;;;;;10.10;2.05;;;31.60;99.90;;;;;;5048987;28;20373;-54
2022/08/01 07:41:25;;;;;;;5.70;2.70;;;32.30;99.90;;;;;;5048362;28;21060;-54
2022/08/01 07:43:50;;;;;;;6.43;2.67;;;32.90;99.90;;;;;;5049218;28;20382;-54
2022/08/01 07:46:16;;;;;;;12.55;4.82;;;33.30;99.90;;;;;;5048081;28;20439;-53
2022/08/01 07:48:42;;;;;;;6.90;2.47;;;32.40;99.90;;;;;;5048939;28;20384;-54
2022/08/01 07:51:09;;;;;;;6.00;2.10;;;31.80;99.90;;;;;;5048726;28;20847;-60
2022/08/01 07:53:35;;;;;;;6.75;2.40;;;30.90;99.90;;;;;;5049077;28;20393;-54
2022/08/01 07:56:02;;;;;;;6.70;2.60;;;30.80;99.90;;;;;;5048802;28;20394;-53
2022/08/01 07:58:28;;;;;;;7.40;2.90;;;29.90;99.90;;;;;;5048171;28;20386;-53
2022/08/01 08:00:53;;;;;;;5.60;1.97;;;30.50;99.90;;;;;;5049294;28;20384;-54
2022/08/01 08:03:19;;;;;;;6.13;2.17;;;31.60;99.90;;;;;;5047913;28;20472;-53
2022/08/01 08:05:44;;;;;;;5.90;1.90;;;32.00;99.90;;;;;;5046292;28;20397;-54
2022/08/01 08:08:11;;;;;;;6.07;2.30;;;33.00;99.90;;;;;;5049983;28;20390;-55
2022/08/01 08:10:36;;;;;;;5.72;2.10;;;33.60;99.90;;;;;;5052237;28;20570;-55
2022/08/01 08:13:02;;;;;;;7.40;2.50;;;32.20;99.90;;;;;;5052523;28;20886;-54
2022/08/01 08:15:28;;;;;;;5.90;2.40;;;32.40;99.90;;;;;;5051962;28;20398;-54
2022/08/01 08:17:54;;;;;;;6.90;2.70;;;33.90;99.90;;;;;;5052198;28;20515;-54
2022/08/01 08:20:24;;;;;;;7.78;3.97;;;35.40;99.90;;;;;;5051217;28;20472;-54
2022/08/01 08:22:51;;;;;;;7.53;3.30;;;35.30;99.90;;;;;;5052115;28;20424;-53
2022/08/01 08:25:18;;;;;;;7.70;3.10;;;33.90;99.90;;;;;;5051129;28;20397;-54
2022/08/01 08:27:44;;;;;;;6.93;2.80;;;32.60;99.90;;;;;;5050521;28;20406;-59
2022/08/01 08:30:11;;;;;;;6.95;3.40;;;32.50;99.90;;;;;;5044531;28;20420;-54
2022/08/01 08:32:37;;;;;;;7.38;2.80;;;32.80;99.90;;;;;;5052194;28;20390;-53
2022/08/01 08:35:03;;;;;;;8.20;3.00;;;34.20;99.90;;;;;;5052443;28;20468;-54
2022/08/01 08:37:29;;;;;;;6.60;2.08;;;35.80;99.90;;;;;;5050313;28;20471;-54
2022/08/01 08:39:54;;;;;;;6.10;2.10;;;34.80;99.90;;;;;;5051793;28;20820;-54
2022/08/01 08:42:20;;;;;;;5.67;1.93;;;33.40;99.90;;;;;;5048681;28;20397;-53
2022/08/01 08:44:46;;;;;;;6.28;2.05;;;32.60;99.90;;;;;;5051850;28;20385;-53
2022/08/01 08:47:13;;;;;;;6.20;1.85;;;32.10;99.90;;;;;;5050064;28;20770;-53
2022/08/01 08:49:41;;;;;;;8.40;2.33;;;31.20;99.90;;;;;;5048489;28;20484;-54
2022/08/01 08:52:09;;;;;;;8.05;2.90;;;31.00;99.90;;;;;;5050957;28;20480;-60
2022/08/01 08:54:37;;;;;;;6.85;2.80;;;30.80;99.90;;;;;;5051473;28;20378;-54
2022/08/01 08:57:03;;;;;;;9.27;3.10;;;30.70;99.90;;;;;;5051609;28;20599;-54
2022/08/01 08:59:29;;;;;;;9.00;3.53;;;31.00;99.90;;;;;;5050409;28;21241;-54
2022/08/01 09:01:56;;;;;;;8.13;3.90;;;30.70;99.90;;;;;;5051265;28;20471;-54
2022/08/01 09:04:22;;;;;;;8.10;3.85;;;31.00;99.90;;;;;;5050388;28;20374;-54
2022/08/01 09:06:48;;;;;;;8.40;3.90;;;30.60;99.90;;;;;;5051384;28;20779;-54
2022/08/01 09:09:14;;;;;;;8.93;3.60;;;31.70;99.90;;;;;;5050384;28;20378;-54
2022/08/01 09:11:40;;;;;;;8.17;3.87;;;32.90;99.90;;;;;;5033803;28;20769;-54
2022/08/01 09:14:14;;;;;;;8.83;3.90;;;33.70;99.90;;;;;;5051240;28;20396;-60
2022/08/01 09:16:44;;;;;;;10.18;5.95;;;34.10;99.90;;;;;;5051509;28;20693;-54
2022/08/01 09:19:18;;;;;;;7.97;3.90;;;35.40;99.90;;;;;;5049487;28;20393;-58
2022/08/01 09:22:01;;;;;;;7.80;4.00;;;36.10;99.90;;;;;;5051098;28;20799;-54
2022/08/01 09:24:28;;;;;;;7.95;4.07;;;37.20;99.90;;;;;;5050517;28;20859;-54
2022/08/01 09:26:54;;;;;;;9.60;4.57;;;36.10;99.90;;;;;;5051368;28;20508;-54
2022/08/01 09:29:23;;;;;;;11.13;4.55;;;36.40;99.90;;;;;;5049849;28;20385;-54
2022/08/01 09:31:49;;;;;;;8.30;3.90;;;35.10;99.90;;;;;;5043880;28;20407;-54
2022/08/01 09:34:23;;;;;;;7.45;3.63;;;35.40;99.90;;;;;;5030440;28;20722;-54
2022/08/01 09:36:54;;;;;;;8.50;4.00;;;36.50;99.90;;;;;;5048809;28;20396;-54
2022/08/01 09:39:20;;;;;;;13.73;3.90;;;34.90;99.90;;;;;;5063719;28;20398;-54
2022/08/01 09:41:47;;;;;;;8.60;3.97;;;33.50;99.90;;;;;;5056212;28;20420;-54
2022/08/01 09:44:14;;;;;;;10.57;4.70;;;32.30;99.90;;;;;;5064489;28;20460;-56
2022/08/01 09:46:51;;;;;;;8.87;4.40;;;30.70;99.90;;;;;;5051868;28;20739;-54
2022/08/01 09:49:31;;;;;;;7.60;3.30;;;30.00;99.90;;;;;;5045738;28;20481;-54
2022/08/01 09:51:58;;;;;;;8.00;3.40;;;29.10;99.90;;;;;;5044157;28;20408;-54
2022/08/01 09:54:33;;;;;;;6.88;3.10;;;29.00;99.90;;;;;;5044103;28;20486;-54
2022/08/01 09:57:13;;;;;;;8.00;3.40;;;29.10;99.90;;;;;;5031725;28;20806;-53
2022/08/01 09:59:42;;;;;;;7.47;3.17;;;29.30;99.90;;;;;;5049261;28;20389;-53
2022/08/01 10:02:10;;;;;;;6.83;2.90;;;29.90;99.90;;;;;;5047479;28;20523;-61
2022/08/01 10:04:36;;;;;;;6.70;2.83;;;30.50;99.90;;;;;;5049600;28;20408;-56
2022/08/01 10:07:06;;;;;;;6.85;3.70;;;31.20;99.90;;;;;;5050295;28;20851;-52
2022/08/01 10:09:36;;;;;;;6.53;2.78;;;32.80;99.90;;;;;;5046386;28;20386;-52
2022/08/01 10:12:03;;;;;;;6.45;3.10;;;33.30;99.90;;;;;;5049845;28;20410;-54
2022/08/01 10:14:30;;;;;;;6.18;2.20;;;34.20;99.90;;;;;;5047550;28;20398;-60
2022/08/01 10:16:59;;;;;;;6.25;2.97;;;35.00;99.90;;;;;;5049621;28;20384;-53
2022/08/01 10:19:26;;;;;;;6.40;2.40;;;34.50;99.90;;;;;;5048646;28;20396;-52
2022/08/01 10:21:53;;;;;;;9.80;2.63;;;34.20;99.90;;;;;;5047152;28;20469;-53
2022/08/01 10:24:24;;;;;;;6.30;2.20;;;33.90;99.90;;;;;;5048857;28;20409;-53
2022/08/01 10:27:02;;;;;;;7.20;2.50;;;33.50;99.90;;;;;;5048705;28;20389;-53
2022/08/01 10:29:29;;;;;;;7.32;2.80;;;33.80;99.90;;;;;;5048962;28;21001;-53
2022/08/01 10:31:55;;;;;;;7.00;2.40;;;34.70;99.90;;;;;;5049066;28;20436;-54
2022/08/01 10:34:21;;;;;;;6.25;2.72;;;36.10;99.90;;;;;;5048297;28;20786;-53
2022/08/01 10:36:48;;;;;;;6.90;2.10;;;36.20;99.90;;;;;;5048865;28;20397;-53
2022/08/01 10:39:14;;;;;;;6.88;2.97;;;34.80;99.90;;;;;;5048593;28;20408;-54
2022/08/01 10:41:41;;;;;;;7.20;2.80;;;33.60;99.90;;;;;;5049677;28;20393;-53
2022/08/01 10:44:07;;;;;;;6.80;3.00;;;33.10;99.90;;;;;;5049775;28;20392;-53
2022/08/01 10:46:38;;;;;;;7.13;3.10;;;32.60;99.90;;;;;;5049403;28;20481;-53
2022/08/01 10:49:16;;;;;;;7.80;3.40;;;32.40;99.90;;;;;;5049801;28;20515;-53
2022/08/01 10:51:42;;;;;;;8.80;3.50;;;31.40;99.90;;;;;;5048674;28;20767;-53
2022/08/01 10:54:10;;;;;;;7.20;3.50;;;31.40;99.90;;;;;;5048782;28;20397;-62
2022/08/01 10:56:47;;;;;;;7.50;2.70;;;31.20;99.90;;;;;;5048317;28;20507;-56
2022/08/01 10:59:28;;;;;;;7.10;2.80;;;30.80;99.90;;;;;;5046213;28;20436;-54
2022/08/01 11:01:59;;;;;;;7.60;2.58;;;30.70;99.90;;;;;;5041056;28;20400;-53
2022/08/01 11:04:40;;;;;;;8.77;3.15;;;31.00;99.90;;;;;;5045527;28;20385;-54
2022/08/01 11:07:10;;;;;;;7.30;2.67;;;31.40;99.90;;;;;;5049883;28;20468;-54
2022/08/01 11:09:44;;;;;;;6.10;2.80;;;31.00;99.90;;;;;;5038319;28;20400;-58
2022/08/01 11:12:16;;;;;;;6.43;2.55;;;31.10;99.90;;;;;;5043058;28;20571;-60
2022/08/01 11:15:00;;;;;;;6.85;2.70;;;31.70;99.90;;;;;;5048652;28;20556;-53
2022/08/01 11:17:33;;;;;;;7.22;3.00;;;31.90;99.90;;;;;;5048817;28;20373;-53
2022/08/01 11:20:21;;;;;;;7.20;2.80;;;31.70;99.90;;;;;;5049497;28;20520;-53
2022/08/01 11:23:01;;;;;;;7.13;3.22;;;31.90;99.90;;;;;;5049470;28;20747;-53
2022/08/01 11:25:35;;;;;;;7.50;2.50;;;31.90;99.90;;;;;;5048759;28;20392;-54
2022/08/01 11:28:16;;;;;;;6.60;2.58;;;32.10;99.90;;;;;;5049874;28;20413;-54
2022/08/01 11:30:46;;;;;;;6.60;3.20;;;31.90;99.90;;;;;;5049402;28;20496;-53
2022/08/01 11:33:13;;;;;;;8.20;2.90;;;32.10;99.90;;;;;;5049307;28;20443;-54
2022/08/01 11:36:11;;;;;;;7.47;2.83;;;32.50;99.90;;;;;;5050056;28;20435;-53
2022/08/01 11:38:48;;;;;;;6.20;2.60;;;32.60;99.90;;;;;;5043885;28;20850;-54
2022/08/01 11:41:23;;;;;;;6.50;2.53;;;33.10;99.90;;;;;;5049288;28;20880;-54
2022/08/01 11:43:56;;;;;;;7.32;2.90;;;32.10;99.90;;;;;;5052635;28;20386;-54
2022/08/01 11:47:02;;;;;;;7.15;3.20;;;31.70;99.90;;;;;;5052761;28;20378;-54
2022/08/01 11:49:37;;;;;;;6.72;2.83;;;31.80;99.90;;;;;;4990822;28;20510;-54
2022/08/01 11:52:23;;;;;;;7.20;2.80;;;31.70;99.90;;;;;;5046853;28;20440;-53
2022/08/01 11:55:02;;;;;;;7.18;3.25;;;31.60;99.90;;;;;;5053333;28;20424;-53
2022/08/01 11:57:30;;;;;;;9.13;3.20;;;31.90;99.90;;;;;;5052980;28;20486;-56
2022/08/01 11:59:58;;;;;;;7.47;3.50;;;31.90;99.90;;;;;;5053393;28;20932;-53
2022/08/01 12:02:32;;;;;;;6.65;3.05;;;32.20;99.90;;;;;;5052825;28;20388;-54
2022/08/01 12:05:07;;;;;;;7.70;3.17;;;32.10;99.90;;;;;;5053141;28;20696;-53
2022/08/01 12:07:35;;;;;;;8.20;2.60;;;32.00;99.90;;;;;;5052890;28;20681;-54
2022/08/01 12:10:05;;;;;;;8.00;3.00;;;32.20;99.90;;;;;;5052545;28;20871;-53
2022/08/01 12:12:32;;;;;;;7.50;2.50;;;32.50;99.90;;;;;;5052533;28;20866;-54
2022/08/01 12:15:00;;;;;;;6.43;2.30;;;32.20;99.90;;;;;;5052867;28;21062;-53
2022/08/01 12:17:31;;;;;;;7.47;2.75;;;31.90;99.90;;;;;;5052482;28;20388;-53
2022/08/01 12:19:56;;;;;;;6.60;2.80;;;31.60;99.90;;;;;;5052242;28;20408;-53
2022/08/01 12:22:24;;;;;;;6.82;2.50;;;32.10;99.90;;;;;;5052169;28;20384;-53
2022/08/01 12:24:49;;;;;;;7.15;3.25;;;32.50;99.90;;;;;;5052698;28;20384;-53
2022/08/01 12:27:29;;;;;;;6.40;2.60;;;32.70;99.90;;;;;;5052207;28;20774;-53
2022/08/01 12:29:57;;;;;;;7.28;2.80;;;32.10;99.90;;;;;;5052639;28;20444;-54
2022/08/01 12:32:36;;;;;;;7.30;2.80;;;31.50;99.90;;;;;;5052076;28;20460;-55
2022/08/01 12:35:10;;;;;;;6.83;2.93;;;31.60;99.90;;;;;;5053058;28;20412;-54
2022/08/01 12:37:44;;;;;;;6.50;2.10;;;31.90;99.90;;;;;;5052411;28;20401;-54
2022/08/01 12:40:15;;;;;;;7.50;2.70;;;32.10;99.90;;;;;;5052817;28;20382;-53
2022/08/01 12:42:43;;;;;;;7.13;2.63;;;32.20;99.90;;;;;;5052785;28;20456;-54
2022/08/01 12:45:11;;;;;;;6.30;2.43;;;32.40;99.90;;;;;;5052469;28;20481;-53
2022/08/01 12:47:38;;;;;;;6.80;2.92;;;32.20;99.90;;;;;;5051483;28;20392;-53
2022/08/01 12:50:11;;;;;;;7.20;2.80;;;32.40;99.90;;;;;;5052417;28;20378;-54
2022/08/01 12:52:37;;;;;;;6.30;2.38;;;32.60;99.90;;;;;;5052151;28;20382;-53
2022/08/01 12:55:05;;;;;;;7.50;2.50;;;32.50;99.90;;;;;;5052078;28;20389;-53
2022/08/01 12:57:30;;;;;;;7.05;2.50;;;32.50;99.90;;;;;;5051965;28;21138;-53
2022/08/01 13:00:19;;;;;;;6.00;2.20;;;32.50;99.90;;;;;;5052436;28;20486;-53